Time;durP1;ratioP1;P1;durP2;ratioP2;P2;SDS_P1;SDS_P2;PMS_P1;PMS_P2;Temp;Humidity;BMP_temperature;BMP_pressure;BME280_temperature;BME280_humidity;BME280_pressure;Samples;Min_cycle;Max_cycle;Signal;HPM_P1;HPM_P2
2020/12/28 00:02:01;;;;;;;4.53;4.23;;;;;;;;;;4997150;28;20188;-85
2020/12/28 00:04:31;;;;;;;5.00;4.60;;;;;;;;;;4996873;28;20179;-86
2020/12/28 00:07:02;;;;;;;4.20;3.90;;;;;;;;;;4995362;28;20568;-86
2020/12/28 00:09:28;;;;;;;4.90;4.20;;;;;;;;;;4995587;28;20198;-85
2020/12/28 00:12:00;;;;;;;4.37;4.07;;;;;;;;;;4996637;28;20649;-85
2020/12/28 00:14:34;;;;;;;4.33;4.03;;;;;;;;;;4996777;28;20169;-86
2020/12/28 00:17:05;;;;;;;8.00;4.60;;;;;;;;;;4995870;28;20201;-86
2020/12/28 00:19:37;;;;;;;4.40;4.10;;;;;;;;;;4995311;28;20268;-86
2020/12/28 00:22:03;;;;;;;4.37;4.07;;;;;;;;;;4996482;28;20330;-86
2020/12/28 00:24:29;;;;;;;4.33;4.03;;;;;;;;;;4995283;28;20185;-86
2020/12/28 00:26:56;;;;;;;3.90;3.60;;;;;;;;;;4995169;28;20206;-86
2020/12/28 00:29:22;;;;;;;4.40;4.10;;;;;;;;;;4995072;28;20667;-85
2020/12/28 00:31:53;;;;;;;5.40;4.90;;;;;;;;;;4996958;28;20182;-86
2020/12/28 00:34:26;;;;;;;5.03;4.57;;;;;;;;;;4995087;28;20180;-86
2020/12/28 00:36:58;;;;;;;4.33;4.03;;;;;;;;;;4994888;28;20197;-86
2020/12/28 00:39:27;;;;;;;4.70;4.30;;;;;;;;;;4996140;28;20179;-86
2020/12/28 00:41:58;;;;;;;4.40;4.10;;;;;;;;;;4995326;28;20181;-86
2020/12/28 00:44:26;;;;;;;4.50;4.20;;;;;;;;;;4994952;28;20191;-86
2020/12/28 00:47:01;;;;;;;4.20;3.90;;;;;;;;;;4996112;28;20201;-87
2020/12/28 00:49:31;;;;;;;5.13;4.73;;;;;;;;;;4996430;28;20197;-87
2020/12/28 00:52:03;;;;;;;4.53;4.17;;;;;;;;;;4994957;28;20210;-86
2020/12/28 00:54:33;;;;;;;4.60;4.30;;;;;;;;;;4996139;28;20212;-86
2020/12/28 00:57:03;;;;;;;5.00;4.50;;;;;;;;;;4994061;28;20662;-85
2020/12/28 00:59:34;;;;;;;5.40;4.70;;;;;;;;;;4995930;28;20179;-86
2020/12/28 01:02:11;;;;;;;5.03;4.57;;;;;;;;;;4995820;28;20179;-86
2020/12/28 01:04:42;;;;;;;4.00;3.70;;;;;;;;;;4994572;28;20174;-86
2020/12/28 01:07:11;;;;;;;7.73;4.37;;;;;;;;;;5003243;23;21285;-86
2020/12/28 01:09:41;;;;;;;4.60;4.20;;;;;;;;;;4995664;28;20202;-85
2020/12/28 01:12:11;;;;;;;6.83;4.13;;;;;;;;;;4995953;28;20173;-85
2020/12/28 01:14:44;;;;;;;4.50;4.13;;;;;;;;;;4995615;28;20202;-85
2020/12/28 01:17:11;;;;;;;4.97;4.47;;;;;;;;;;4994178;28;20729;-85
2020/12/28 01:19:40;;;;;;;5.20;3.93;;;;;;;;;;4995961;28;20181;-86
2020/12/28 01:22:07;;;;;;;4.53;4.17;;;;;;;;;;4994785;28;20272;-86
2020/12/28 01:24:38;;;;;;;4.30;4.00;;;;;;;;;;4994347;28;20192;-86
2020/12/28 01:27:09;;;;;;;4.47;4.07;;;;;;;;;;4994053;28;20201;-86
2020/12/28 01:29:35;;;;;;;5.17;4.17;;;;;;;;;;4993996;28;20194;-86
2020/12/28 01:32:07;;;;;;;4.57;4.27;;;;;;;;;;4994120;28;20189;-86
2020/12/28 01:34:33;;;;;;;4.77;4.37;;;;;;;;;;4995538;28;20163;-86
2020/12/28 01:36:59;;;;;;;4.27;3.97;;;;;;;;;;4995278;28;20549;-86
2020/12/28 01:39:31;;;;;;;4.43;4.10;;;;;;;;;;4995282;28;20638;-86
2020/12/28 01:41:57;;;;;;;5.60;4.03;;;;;;;;;;4995134;28;20184;-85
2020/12/28 01:44:29;;;;;;;4.73;4.30;;;;;;;;;;4993804;28;20185;-85
2020/12/28 01:47:01;;;;;;;4.97;4.67;;;;;;;;;;4993757;28;20170;-85
2020/12/28 01:49:28;;;;;;;4.93;4.53;;;;;;;;;;4993532;28;20205;-85
2020/12/28 01:51:59;;;;;;;4.33;3.97;;;;;;;;;;4993828;28;20531;-85
2020/12/28 01:54:25;;;;;;;4.00;3.70;;;;;;;;;;4994786;28;20179;-85
2020/12/28 01:56:52;;;;;;;4.27;3.97;;;;;;;;;;4993488;28;20184;-85
2020/12/28 01:59:20;;;;;;;4.63;4.33;;;;;;;;;;4993416;28;20646;-85
2020/12/28 02:01:47;;;;;;;4.07;3.77;;;;;;;;;;4993463;28;20750;-85
2020/12/28 02:04:19;;;;;;;4.33;4.03;;;;;;;;;;4993400;28;20185;-85
2020/12/28 02:06:50;;;;;;;3.97;3.67;;;;;;;;;;4993216;28;20185;-85
2020/12/28 02:09:23;;;;;;;4.63;4.33;;;;;;;;;;4994157;28;20563;-85
2020/12/28 02:11:54;;;;;;;3.80;3.50;;;;;;;;;;4993353;28;20611;-85
2020/12/28 02:14:21;;;;;;;4.33;4.00;;;;;;;;;;4993174;28;20587;-86
2020/12/28 02:16:51;;;;;;;4.40;4.10;;;;;;;;;;4993299;28;20197;-86
2020/12/28 02:19:21;;;;;;;3.90;3.60;;;;;;;;;;4994726;28;20165;-86
2020/12/28 02:21:47;;;;;;;4.17;3.87;;;;;;;;;;4994656;28;20203;-86
2020/12/28 02:24:16;;;;;;;4.50;4.10;;;;;;;;;;4994827;28;20204;-84
2020/12/28 02:26:47;;;;;;;4.27;3.90;;;;;;;;;;4995042;28;20673;-84
2020/12/28 02:29:17;;;;;;;4.00;3.70;;;;;;;;;;4994102;28;20195;-84
2020/12/28 02:31:44;;;;;;;4.60;3.97;;;;;;;;;;4994150;28;20205;-84
2020/12/28 02:34:12;;;;;;;5.10;4.60;;;;;;;;;;4994741;28;20170;-85
2020/12/28 02:36:39;;;;;;;4.00;3.70;;;;;;;;;;4992848;28;20182;-86
2020/12/28 02:39:10;;;;;;;3.90;3.60;;;;;;;;;;4994020;28;20209;-86
2020/12/28 02:41:36;;;;;;;4.17;3.87;;;;;;;;;;4992807;28;20182;-86
2020/12/28 02:44:02;;;;;;;4.20;3.90;;;;;;;;;;4992791;28;20241;-86
2020/12/28 02:46:28;;;;;;;4.53;4.17;;;;;;;;;;4992764;28;20182;-86
2020/12/28 02:49:00;;;;;;;4.03;3.73;;;;;;;;;;4994017;28;20212;-86
2020/12/28 02:51:33;;;;;;;4.17;3.87;;;;;;;;;;4994068;28;20169;-86
2020/12/28 02:54:01;;;;;;;3.93;3.67;;;;;;;;;;4994059;28;20184;-86
2020/12/28 02:56:31;;;;;;;4.30;3.90;;;;;;;;;;4994278;28;20208;-86
2020/12/28 02:59:01;;;;;;;4.30;3.90;;;;;;;;;;4992597;28;20205;-86
2020/12/28 03:01:35;;;;;;;5.20;3.77;;;;;;;;;;4993939;28;20182;-86
2020/12/28 03:04:07;;;;;;;4.00;3.70;;;;;;;;;;4993989;28;20169;-86
2020/12/28 03:06:37;;;;;;;4.23;3.87;;;;;;;;;;4994276;28;20193;-86
2020/12/28 03:09:07;;;;;;;3.73;3.43;;;;;;;;;;4993673;28;20643;-86
2020/12/28 03:11:39;;;;;;;4.03;3.73;;;;;;;;;;4994491;28;20183;-86
2020/12/28 03:14:08;;;;;;;4.50;4.20;;;;;;;;;;4992649;28;20260;-86
2020/12/28 03:16:39;;;;;;;3.90;3.60;;;;;;;;;;4993866;28;20665;-86
2020/12/28 03:19:05;;;;;;;4.40;4.10;;;;;;;;;;4992547;28;20181;-86
2020/12/28 03:21:32;;;;;;;4.20;3.90;;;;;;;;;;4996473;28;20188;-86
2020/12/28 03:24:00;;;;;;;4.00;3.70;;;;;;;;;;4996612;28;20185;-86
2020/12/28 03:26:29;;;;;;;4.13;3.67;;;;;;;;;;4996500;28;20185;-86
2020/12/28 03:28:56;;;;;;;4.23;3.83;;;;;;;;;;4997622;28;20224;-86
2020/12/28 03:31:27;;;;;;;4.80;3.80;;;;;;;;;;4996288;28;20178;-86
2020/12/28 03:33:58;;;;;;;3.93;3.63;;;;;;;;;;4997940;28;20239;-86
2020/12/28 03:36:30;;;;;;;4.17;3.87;;;;;;;;;;4997472;28;20205;-86
2020/12/28 03:39:05;;;;;;;4.10;3.90;;;;;;;;;;4996156;28;20206;-86
2020/12/28 03:41:41;;;;;;;4.27;3.97;;;;;;;;;;4996131;28;20276;-86
2020/12/28 03:44:14;;;;;;;4.00;3.80;;;;;;;;;;4996337;28;20605;-86
2020/12/28 03:46:43;;;;;;;4.23;3.93;;;;;;;;;;4996781;28;20181;-86
2020/12/28 03:49:15;;;;;;;4.40;4.00;;;;;;;;;;4997216;28;20201;-86
2020/12/28 03:51:44;;;;;;;4.00;3.70;;;;;;;;;;4995817;28;20185;-86
2020/12/28 03:54:15;;;;;;;3.80;3.60;;;;;;;;;;4996463;28;20182;-86
2020/12/28 03:56:42;;;;;;;3.90;3.60;;;;;;;;;;4996169;28;20206;-86
2020/12/28 03:59:14;;;;;;;4.20;3.90;;;;;;;;;;4995967;28;20180;-86
2020/12/28 04:01:46;;;;;;;4.83;3.60;;;;;;;;;;4997132;28;20174;-86
2020/12/28 04:04:21;;;;;;;3.57;3.27;;;;;;;;;;4995964;28;20181;-86
2020/12/28 04:06:47;;;;;;;3.90;3.70;;;;;;;;;;4997294;28;20182;-86
2020/12/28 04:09:16;;;;;;;7.17;3.90;;;;;;;;;;4995727;28;20206;-86
2020/12/28 04:11:47;;;;;;;3.90;3.60;;;;;;;;;;4995765;28;20254;-86
2020/12/28 04:14:20;;;;;;;4.03;3.73;;;;;;;;;;4997002;28;20193;-86
2020/12/28 04:16:54;;;;;;;3.70;3.50;;;;;;;;;;4997161;28;20170;-86
2020/12/28 04:19:23;;;;;;;3.60;3.40;;;;;;;;;;4995975;28;20189;-86
2020/12/28 04:21:51;;;;;;;4.10;3.80;;;;;;;;;;4996834;28;20177;-86
2020/12/28 04:24:21;;;;;;;3.70;3.40;;;;;;;;;;4995721;28;20210;-86
2020/12/28 04:26:50;;;;;;;3.90;3.60;;;;;;;;;;4995402;28;20272;-86
2020/12/28 04:29:24;;;;;;;4.33;4.03;;;;;;;;;;4995340;28;20236;-86
2020/12/28 04:31:59;;;;;;;4.17;3.90;;;;;;;;;;4994691;28;20260;-86
2020/12/28 04:34:31;;;;;;;3.83;3.63;;;;;;;;;;4996731;28;20523;-86
2020/12/28 04:36:57;;;;;;;4.47;4.17;;;;;;;;;;4995055;28;20181;-86
2020/12/28 04:39:29;;;;;;;4.10;3.80;;;;;;;;;;4996377;28;20185;-86
2020/12/28 04:42:01;;;;;;;4.07;3.87;;;;;;;;;;4995081;28;20184;-86
2020/12/28 04:44:27;;;;;;;4.13;3.90;;;;;;;;;;4996259;28;20182;-86
2020/12/28 04:46:56;;;;;;;4.07;3.87;;;;;;;;;;4996253;28;20634;-86
2020/12/28 04:49:29;;;;;;;4.30;4.07;;;;;;;;;;4994910;28;20210;-86
2020/12/28 04:52:01;;;;;;;4.40;4.10;;;;;;;;;;4996191;28;20182;-86
2020/12/28 04:54:27;;;;;;;4.10;3.90;;;;;;;;;;4995161;28;20642;-86
2020/12/28 04:56:56;;;;;;;4.23;4.03;;;;;;;;;;4994706;28;20173;-86
2020/12/28 04:59:25;;;;;;;4.73;4.23;;;;;;;;;;4994799;28;20210;-86
2020/12/28 05:01:56;;;;;;;4.23;3.97;;;;;;;;;;4995992;28;20264;-86
2020/12/28 05:04:31;;;;;;;4.37;4.10;;;;;;;;;;4994631;28;20186;-86
2020/12/28 05:07:03;;;;;;;3.97;3.77;;;;;;;;;;4995902;28;20184;-86
2020/12/28 05:09:35;;;;;;;3.93;3.73;;;;;;;;;;4994599;28;20205;-86
2020/12/28 05:12:07;;;;;;;4.13;3.90;;;;;;;;;;4994480;28;20178;-86
2020/12/28 05:14:38;;;;;;;3.90;3.70;;;;;;;;;;4995582;28;20209;-86
2020/12/28 05:17:10;;;;;;;4.27;4.07;;;;;;;;;;4995504;28;20666;-86
2020/12/28 05:19:41;;;;;;;3.80;3.60;;;;;;;;;;4994385;28;20182;-86
2020/12/28 05:22:11;;;;;;;4.17;3.87;;;;;;;;;;4995498;28;20181;-86
2020/12/28 05:24:45;;;;;;;3.90;3.67;;;;;;;;;;4994289;28;20210;-86
2020/12/28 05:27:17;;;;;;;3.80;3.60;;;;;;;;;;4994206;28;20587;-86
2020/12/28 05:29:46;;;;;;;4.27;3.97;;;;;;;;;;4995735;28;20229;-86
2020/12/28 05:32:20;;;;;;;4.13;3.93;;;;;;;;;;4994148;28;20664;-86
2020/12/28 05:34:47;;;;;;;4.07;3.87;;;;;;;;;;4994102;28;20581;-86
2020/12/28 05:37:17;;;;;;;4.30;4.10;;;;;;;;;;4993929;28;20209;-86
2020/12/28 05:39:47;;;;;;;4.13;3.93;;;;;;;;;;4993941;28;20646;-86
2020/12/28 05:42:21;;;;;;;4.57;4.27;;;;;;;;;;4995128;28;20182;-86
2020/12/28 05:44:55;;;;;;;4.10;3.90;;;;;;;;;;4993860;28;20182;-86
2020/12/28 05:47:21;;;;;;;4.57;4.07;;;;;;;;;;4994474;28;20205;-86
2020/12/28 05:49:49;;;;;;;4.47;4.17;;;;;;;;;;4994877;28;20582;-86
2020/12/28 05:52:20;;;;;;;4.47;4.20;;;;;;;;;;4995074;28;20170;-86
2020/12/28 05:54:50;;;;;;;4.37;4.07;;;;;;;;;;4993761;28;20178;-86
2020/12/28 05:57:25;;;;;;;4.57;4.37;;;;;;;;;;4994897;28;20194;-86
2020/12/28 05:59:59;;;;;;;4.30;4.10;;;;;;;;;;4993642;28;20565;-86
2020/12/28 06:02:27;;;;;;;4.60;4.30;;;;;;;;;;4993735;28;20178;-86
2020/12/28 06:05:03;;;;;;;4.30;4.10;;;;;;;;;;5111925;27;21182;-85
2020/12/28 06:07:33;;;;;;;4.43;4.23;;;;;;;;;;5111106;28;20284;-85
2020/12/28 06:10:01;;;;;;;4.67;4.43;;;;;;;;;;5111816;28;20583;-85
2020/12/28 06:12:28;;;;;;;4.47;4.27;;;;;;;;;;5111089;28;20170;-84
2020/12/28 06:15:03;;;;;;;4.63;4.17;;;;;;;;;;5111506;28;20205;-85
2020/12/28 06:17:36;;;;;;;4.43;4.23;;;;;;;;;;5109750;28;20709;-85
2020/12/28 06:20:06;;;;;;;4.90;4.60;;;;;;;;;;5109654;28;20261;-85
2020/12/28 06:22:33;;;;;;;4.80;4.50;;;;;;;;;;5111107;28;20178;-85
2020/12/28 06:25:10;;;;;;;4.47;4.27;;;;;;;;;;5110962;28;20253;-85
2020/12/28 06:27:43;;;;;;;4.63;4.43;;;;;;;;;;5110877;28;20195;-85
2020/12/28 06:30:16;;;;;;;5.00;4.70;;;;;;;;;;5111170;28;20511;-84
2020/12/28 06:32:47;;;;;;;5.10;4.80;;;;;;;;;;5111084;28;20254;-85
2020/12/28 06:35:15;;;;;;;5.10;4.80;;;;;;;;;;5110371;28;20171;-85
2020/12/28 06:37:50;;;;;;;5.10;4.80;;;;;;;;;;5110938;28;20574;-85
2020/12/28 06:40:29;;;;;;;5.10;4.80;;;;;;;;;;5110834;28;20241;-85
2020/12/28 06:43:19;;;;;;;4.73;4.43;;;;;;;;;;5110789;28;20673;-85
2020/12/28 06:45:55;;;;;;;4.63;4.33;;;;;;;;;;5111052;28;20171;-85
2020/12/28 06:48:30;;;;;;;4.80;4.50;;;;;;;;;;5109205;28;20201;-85
2020/12/28 06:51:08;;;;;;;5.37;5.07;;;;;;;;;;5110308;28;20178;-84
2020/12/28 06:53:35;;;;;;;4.60;4.40;;;;;;;;;;5109175;28;20611;-84
2020/12/28 06:56:14;;;;;;;4.40;4.20;;;;;;;;;;5109029;28;20620;-85
2020/12/28 06:58:45;;;;;;;4.90;4.60;;;;;;;;;;5110417;28;20191;-85
2020/12/28 07:01:15;;;;;;;5.00;4.70;;;;;;;;;;5109095;28;20186;-85
2020/12/28 07:03:50;;;;;;;4.83;4.60;;;;;;;;;;5110019;28;20214;-85
2020/12/28 07:06:29;;;;;;;5.07;4.77;;;;;;;;;;5108864;28;20162;-84
2020/12/28 07:09:10;;;;;;;5.30;5.00;;;;;;;;;;5108751;28;20221;-85
2020/12/28 07:11:46;;;;;;;6.03;5.63;;;;;;;;;;5132754;22;20228;-85
2020/12/28 07:14:12;;;;;;;5.60;5.30;;;;;;;;;;5128463;28;20197;-84
2020/12/28 07:16:41;;;;;;;6.03;5.53;;;;;;;;;;5115217;28;20265;-84
2020/12/28 07:19:12;;;;;;;6.47;6.07;;;;;;;;;;5115513;28;20174;-84
2020/12/28 07:21:41;;;;;;;6.50;6.10;;;;;;;;;;5098830;28;20241;-84
2020/12/28 07:24:14;;;;;;;7.27;6.77;;;;;;;;;;5094895;28;20205;-84
2020/12/28 07:26:47;;;;;;;7.10;6.60;;;;;;;;;;5094922;28;20202;-85
2020/12/28 07:29:17;;;;;;;7.43;6.80;;;;;;;;;;5095084;28;20176;-85
2020/12/28 07:31:47;;;;;;;6.93;6.53;;;;;;;;;;5095933;28;20239;-85
2020/12/28 07:34:17;;;;;;;8.03;7.43;;;;;;;;;;5094683;28;20172;-85
2020/12/28 07:36:51;;;;;;;7.80;7.30;;;;;;;;;;5096030;28;20172;-85
2020/12/28 07:39:24;;;;;;;8.60;7.80;;;;;;;;;;5096312;28;20618;-85
2020/12/28 07:41:55;;;;;;;8.57;7.97;;;;;;;;;;5095989;28;20286;-85
2020/12/28 07:44:23;;;;;;;8.90;8.30;;;;;;;;;;5094426;28;20195;-85
2020/12/28 07:47:04;;;;;;;8.40;7.80;;;;;;;;;;5094469;28;20178;-84
2020/12/28 07:49:39;;;;;;;9.20;8.50;;;;;;;;;;5094424;28;20169;-84
2020/12/28 07:52:13;;;;;;;8.80;8.30;;;;;;;;;;5095538;28;20189;-85
2020/12/28 07:54:59;;;;;;;8.57;8.07;;;;;;;;;;5096193;28;20538;-85
2020/12/28 07:57:54;;;;;;;9.30;8.50;;;;;;;;;;5095722;28;20646;-85
2020/12/28 08:00:23;;;;;;;8.90;8.40;;;;;;;;;;5091274;28;20234;-85
2020/12/28 08:03:11;;;;;;;9.30;8.70;;;;;;;;;;5094090;28;20167;-85
2020/12/28 08:05:38;;;;;;;9.33;8.60;;;;;;;;;;5094192;28;20662;-85
2020/12/28 08:08:19;;;;;;;10.07;9.37;;;;;;;;;;5095702;28;20245;-85
2020/12/28 08:11:01;;;;;;;9.53;8.93;;;;;;;;;;5093940;28;20210;-85
2020/12/28 08:13:38;;;;;;;9.50;8.90;;;;;;;;;;5095511;28;20531;-85
2020/12/28 08:16:15;;;;;;;10.53;9.80;;;;;;;;;;5095189;28;20178;-85
2020/12/28 08:18:49;;;;;;;10.07;9.47;;;;;;;;;;5095911;28;20190;-85
2020/12/28 08:21:19;;;;;;;10.27;9.57;;;;;;;;;;5095157;28;20196;-85
2020/12/28 08:23:51;;;;;;;10.40;9.70;;;;;;;;;;5093827;28;20199;-85
2020/12/28 08:26:21;;;;;;;10.60;9.33;;;;;;;;;;5094348;28;20227;-87
2020/12/28 08:28:56;;;;;;;10.90;10.10;;;;;;;;;;5094973;28;20568;-87
2020/12/28 08:31:34;;;;;;;11.20;10.40;;;;;;;;;;5093516;28;20191;-87
2020/12/28 08:34:06;;;;;;;10.43;9.63;;;;;;;;;;5093619;28;20194;-87
2020/12/28 08:36:36;;;;;;;9.87;9.27;;;;;;;;;;5094887;28;20175;-86
2020/12/28 08:39:20;;;;;;;10.03;9.33;;;;;;;;;;5093555;28;20179;-87
2020/12/28 08:41:57;;;;;;;9.87;9.17;;;;;;;;;;5094957;28;20222;-87
2020/12/28 08:44:34;;;;;;;10.00;9.33;;;;;;;;;;5093309;28;20255;-87
2020/12/28 08:47:08;;;;;;;10.30;9.50;;;;;;;;;;5093491;28;20258;-87
2020/12/28 08:49:35;;;;;;;10.20;9.37;;;;;;;;;;5093966;28;20177;-86
2020/12/28 08:52:15;;;;;;;9.90;9.30;;;;;;;;;;5094590;28;20202;-87
2020/12/28 08:54:41;;;;;;;10.60;9.80;;;;;;;;;;5093335;28;20170;-86
2020/12/28 08:57:33;;;;;;;10.23;9.43;;;;;;;;;;5094385;28;20594;-87
2020/12/28 09:00:01;;;;;;;9.40;8.70;;;;;;;;;;5094555;28;20182;-87
2020/12/28 09:02:28;;;;;;;9.50;8.70;;;;;;;;;;5094559;28;20185;-87
2020/12/28 09:05:00;;;;;;;10.13;9.20;;;;;;;;;;5094622;28;20190;-87
2020/12/28 09:07:35;;;;;;;9.80;9.00;;;;;;;;;;5093076;28;20581;-83
2020/12/28 09:10:08;;;;;;;8.80;8.10;;;;;;;;;;5094509;28;20187;-86
2020/12/28 09:12:37;;;;;;;11.00;7.70;;;;;;;;;;5092889;28;20175;-86
2020/12/28 09:15:04;;;;;;;8.97;8.27;;;;;;;;;;5093020;28;20278;-86
2020/12/28 09:17:40;;;;;;;8.40;7.73;;;;;;;;;;5094095;28;20651;-86
2020/12/28 09:20:13;;;;;;;7.70;7.17;;;;;;;;;;5094359;28;20201;-86
2020/12/28 09:22:42;;;;;;;8.30;7.70;;;;;;;;;;5093896;28;20167;-87
2020/12/28 09:25:09;;;;;;;8.70;8.10;;;;;;;;;;5093861;28;20253;-86
2020/12/28 09:27:40;;;;;;;8.60;7.90;;;;;;;;;;5093685;28;20529;-87
2020/12/28 09:30:09;;;;;;;8.90;8.27;;;;;;;;;;5092468;28;20194;-86
2020/12/28 09:32:41;;;;;;;8.77;8.13;;;;;;;;;;5093882;28;20157;-86
2020/12/28 09:35:10;;;;;;;9.40;8.60;;;;;;;;;;5094159;28;20169;-86
2020/12/28 09:37:37;;;;;;;9.53;8.07;;;;;;;;;;5092366;28;20173;-86
2020/12/28 09:40:08;;;;;;;8.40;7.80;;;;;;;;;;5092302;28;20190;-85
2020/12/28 09:42:35;;;;;;;8.83;8.17;;;;;;;;;;5093852;28;20216;-85
2020/12/28 09:45:02;;;;;;;8.23;7.63;;;;;;;;;;5093577;28;20203;-85
2020/12/28 09:47:31;;;;;;;9.00;8.30;;;;;;;;;;5092072;28;20170;-86
2020/12/28 09:50:00;;;;;;;9.53;8.73;;;;;;;;;;5093503;28;20174;-85
2020/12/28 09:52:35;;;;;;;9.43;8.70;;;;;;;;;;5092224;28;20682;-85
2020/12/28 09:55:04;;;;;;;8.30;7.67;;;;;;;;;;5092292;28;20291;-85
2020/12/28 09:57:34;;;;;;;8.97;8.27;;;;;;;;;;5093914;28;20174;-85
2020/12/28 10:00:04;;;;;;;8.83;8.00;;;;;;;;;;5092139;28;20232;-85
2020/12/28 10:02:40;;;;;;;9.10;8.30;;;;;;;;;;5092878;28;20260;-86
2020/12/28 10:05:15;;;;;;;8.07;7.40;;;;;;;;;;5092099;28;20585;-86
2020/12/28 10:07:49;;;;;;;8.77;7.87;;;;;;;;;;5093409;28;20148;-86
2020/12/28 10:10:17;;;;;;;8.67;7.97;;;;;;;;;;5093188;28;20747;-86
2020/12/28 10:12:47;;;;;;;8.67;7.87;;;;;;;;;;5092295;28;20538;-85
2020/12/28 10:15:17;;;;;;;8.00;7.40;;;;;;;;;;5091906;28;20582;-85
2020/12/28 10:18:05;;;;;;;8.83;8.13;;;;;;;;;;5093374;28;20219;-85
2020/12/28 10:20:31;;;;;;;8.97;8.23;;;;;;;;;;5093072;28;20697;-86
2020/12/28 10:22:59;;;;;;;11.23;8.50;;;;;;;;;;5091808;28;20254;-85
2020/12/28 10:25:28;;;;;;;8.67;8.03;;;;;;;;;;5093199;28;20634;-85
2020/12/28 10:28:01;;;;;;;9.30;8.60;;;;;;;;;;5093385;28;20246;-85
2020/12/28 10:30:32;;;;;;;9.30;8.60;;;;;;;;;;5093560;28;20203;-86
2020/12/28 10:32:59;;;;;;;9.13;8.33;;;;;;;;;;5092009;28;20657;-85
2020/12/28 10:35:29;;;;;;;8.40;7.80;;;;;;;;;;5093104;28;20221;-85
2020/12/28 10:37:56;;;;;;;9.00;8.20;;;;;;;;;;5091691;28;20177;-86
2020/12/28 10:40:26;;;;;;;9.00;8.30;;;;;;;;;;5092980;28;20753;-86
2020/12/28 10:42:55;;;;;;;8.97;8.27;;;;;;;;;;5093169;28;20173;-84
2020/12/28 10:45:23;;;;;;;9.30;8.40;;;;;;;;;;5093005;28;20170;-83
2020/12/28 10:47:55;;;;;;;8.77;8.07;;;;;;;;;;5093504;28;20628;-83
2020/12/28 10:50:26;;;;;;;8.70;8.10;;;;;;;;;;5094594;28;20210;-83
2020/12/28 10:52:52;;;;;;;7.73;7.13;;;;;;;;;;5096767;28;20171;-81
2020/12/28 10:55:22;;;;;;;8.67;7.97;;;;;;;;;;5097077;28;20166;-84
2020/12/28 10:57:55;;;;;;;8.53;7.93;;;;;;;;;;5095283;28;20177;-84
2020/12/28 11:00:21;;;;;;;7.93;7.43;;;;;;;;;;5096707;28;20670;-83
2020/12/28 11:02:52;;;;;;;7.77;7.17;;;;;;;;;;5096809;28;20617;-84
2020/12/28 11:05:25;;;;;;;8.47;7.87;;;;;;;;;;5096664;28;20175;-83
2020/12/28 11:07:55;;;;;;;7.73;7.13;;;;;;;;;;5095293;28;20224;-84
2020/12/28 11:10:29;;;;;;;8.10;7.50;;;;;;;;;;5096650;28;20280;-83
2020/12/28 11:12:55;;;;;;;7.17;6.67;;;;;;;;;;5096671;28;20175;-83
2020/12/28 11:15:21;;;;;;;7.80;7.20;;;;;;;;;;5095457;28;20198;-84
2020/12/28 11:17:51;;;;;;;8.13;7.53;;;;;;;;;;5096172;28;20174;-84
2020/12/28 11:20:20;;;;;;;7.87;7.37;;;;;;;;;;5096210;28;20304;-83
2020/12/28 11:22:56;;;;;;;7.97;7.37;;;;;;;;;;5096031;28;20171;-83
2020/12/28 11:25:27;;;;;;;7.10;6.60;;;;;;;;;;5096120;28;20671;-84
2020/12/28 11:27:53;;;;;;;8.27;7.57;;;;;;;;;;5094868;28;20178;-83
2020/12/28 11:30:21;;;;;;;7.80;7.20;;;;;;;;;;5094664;28;20221;-83
2020/12/28 11:32:51;;;;;;;8.10;7.50;;;;;;;;;;5094780;28;20167;-83
2020/12/28 11:35:21;;;;;;;7.80;7.00;;;;;;;;;;5095889;28;20176;-84
2020/12/28 11:37:50;;;;;;;7.87;7.37;;;;;;;;;;5094599;28;20228;-83
2020/12/28 11:40:19;;;;;;;8.37;7.60;;;;;;;;;;5094565;28;20274;-83
2020/12/28 11:42:55;;;;;;;11.50;7.40;;;;;;;;;;5094391;28;20171;-86
2020/12/28 11:45:23;;;;;;;7.70;7.20;;;;;;;;;;5095430;28;20172;-85
2020/12/28 11:47:57;;;;;;;7.70;7.20;;;;;;;;;;5095658;28;20182;-85
2020/12/28 11:50:31;;;;;;;8.13;7.40;;;;;;;;;;5094244;28;20196;-85
2020/12/28 11:53:05;;;;;;;7.37;6.87;;;;;;;;;;5095556;28;20167;-85
2020/12/28 11:56:01;;;;;;;8.27;7.50;;;;;;;;;;5094277;28;20263;-85
2020/12/28 11:58:21;;;;;;;7.63;7.13;;;;;;;;;;5095550;28;20182;-86
2020/12/28 12:00:48;;;;;;;7.50;6.97;;;;;;;;;;5095269;28;20214;-86
2020/12/28 12:03:20;;;;;;;7.60;7.00;;;;;;;;;;5093796;28;20197;-86
2020/12/28 12:05:51;;;;;;;8.07;7.47;;;;;;;;;;5093859;28;20169;-85
2020/12/28 12:08:22;;;;;;;7.60;7.10;;;;;;;;;;5095341;28;20171;-85
2020/12/28 12:10:55;;;;;;;7.13;6.60;;;;;;;;;;5093879;28;20211;-84
2020/12/28 12:13:24;;;;;;;7.07;6.57;;;;;;;;;;5095376;28;20624;-84
2020/12/28 12:15:59;;;;;;;7.53;6.83;;;;;;;;;;5095260;28;20720;-84
2020/12/28 12:18:31;;;;;;;7.93;7.10;;;;;;;;;;5095508;28;20182;-84
2020/12/28 12:21:02;;;;;;;6.57;6.10;;;;;;;;;;5095176;28;20198;-85
2020/12/28 12:23:34;;;;;;;6.80;6.30;;;;;;;;;;5095408;28;20279;-85
2020/12/28 12:26:05;;;;;;;6.87;6.37;;;;;;;;;;5093621;28;20199;-85
2020/12/28 12:28:36;;;;;;;6.87;6.27;;;;;;;;;;5094801;28;20638;-85
2020/12/28 12:31:09;;;;;;;6.37;5.80;;;;;;;;;;5093882;28;20686;-85
2020/12/28 12:33:41;;;;;;;6.13;5.63;;;;;;;;;;5094663;28;20174;-85
2020/12/28 12:36:16;;;;;;;6.93;6.20;;;;;;;;;;5094793;28;20175;-84
2020/12/28 12:38:51;;;;;;;5.70;5.30;;;;;;;;;;5094809;28;20253;-85
2020/12/28 12:41:24;;;;;;;5.77;5.37;;;;;;;;;;5093286;28;20198;-85
2020/12/28 12:43:59;;;;;;;6.30;5.80;;;;;;;;;;5093407;28;20199;-85
2020/12/28 12:46:31;;;;;;;5.80;5.40;;;;;;;;;;5094327;28;20201;-84
2020/12/28 12:49:05;;;;;;;5.60;5.13;;;;;;;;;;5093354;28;20178;-87
2020/12/28 12:51:36;;;;;;;6.07;5.67;;;;;;;;;;5095301;28;20203;-87
2020/12/28 12:54:07;;;;;;;6.30;5.80;;;;;;;;;;5094498;28;20175;-87
2020/12/28 12:56:38;;;;;;;9.67;5.40;;;;;;;;;;5093179;28;20635;-87
2020/12/28 12:59:10;;;;;;;6.27;5.83;;;;;;;;;;5093009;28;20171;-87
2020/12/28 13:01:36;;;;;;;7.03;5.13;;;;;;;;;;5093377;28;20239;-87
2020/12/28 13:04:30;;;;;;;6.17;5.77;;;;;;;;;;5093173;28;20225;-90
2020/12/28 13:06:54;;;;;;;5.43;5.03;;;;;;;;;;5094068;28;20219;-89
2020/12/28 13:09:21;;;;;;;6.07;5.67;;;;;;;;;;5092920;28;20219;-89
2020/12/28 13:11:49;;;;;;;5.90;5.50;;;;;;;;;;5131917;22;20771;-87
2020/12/28 13:14:20;;;;;;;5.73;5.33;;;;;;;;;;5093477;28;20181;-88
2020/12/28 13:16:49;;;;;;;5.43;5.03;;;;;;;;;;5092691;28;20171;-88
2020/12/28 13:19:16;;;;;;;5.90;5.40;;;;;;;;;;5092674;28;20167;-88
2020/12/28 13:21:47;;;;;;;5.57;5.17;;;;;;;;;;5093821;28;20275;-88
2020/12/28 13:24:13;;;;;;;5.60;5.20;;;;;;;;;;5092525;28;20602;-88
2020/12/28 13:26:41;;;;;;;6.00;5.50;;;;;;;;;;5092610;28;20180;-87
2020/12/28 13:29:10;;;;;;;5.63;5.13;;;;;;;;;;5093790;28;20171;-88
2020/12/28 13:31:37;;;;;;;5.53;5.13;;;;;;;;;;5093661;28;20273;-88
2020/12/28 13:34:08;;;;;;;5.73;5.33;;;;;;;;;;5093666;28;20716;-88
2020/12/28 13:36:37;;;;;;;6.13;5.53;;;;;;;;;;5092399;28;20175;-88
2020/12/28 13:39:04;;;;;;;6.27;5.87;;;;;;;;;;5092376;28;20224;-88
2020/12/28 13:41:33;;;;;;;6.17;5.77;;;;;;;;;;5093656;28;20610;-88
2020/12/28 13:43:59;;;;;;;5.80;5.40;;;;;;;;;;5092311;28;20204;-89
2020/12/28 13:46:28;;;;;;;6.80;6.30;;;;;;;;;;5093557;28;20175;-89
2020/12/28 13:48:56;;;;;;;7.03;6.40;;;;;;;;;;5092204;28;20643;-89
2020/12/28 13:51:25;;;;;;;6.30;5.80;;;;;;;;;;5093318;28;20240;-89
2020/12/28 13:53:52;;;;;;;6.83;6.33;;;;;;;;;;5092276;28;20258;-89
2020/12/28 13:56:21;;;;;;;6.47;5.97;;;;;;;;;;5092227;28;20186;-88
2020/12/28 13:58:49;;;;;;;6.20;5.70;;;;;;;;;;5092112;28;20182;-88
2020/12/28 14:01:18;;;;;;;6.57;6.07;;;;;;;;;;5092010;28;20202;-88
2020/12/28 14:03:45;;;;;;;5.60;5.20;;;;;;;;;;5092154;28;20203;-88
2020/12/28 14:06:14;;;;;;;5.60;5.20;;;;;;;;;;5092205;28;20591;-88
2020/12/28 14:08:47;;;;;;;6.53;6.03;;;;;;;;;;5092015;28;20240;-88
2020/12/28 14:11:16;;;;;;;5.23;4.93;;;;;;;;;;5093132;28;20217;-88
2020/12/28 14:13:42;;;;;;;6.50;5.90;;;;;;;;;;5093224;28;20190;-88
2020/12/28 14:16:13;;;;;;;7.20;6.60;;;;;;;;;;5091880;28;20185;-88
2020/12/28 14:18:45;;;;;;;5.90;5.50;;;;;;;;;;5091976;28;20178;-88
2020/12/28 14:21:16;;;;;;;6.70;6.07;;;;;;;;;;5092368;28;20208;-88
2020/12/28 14:23:47;;;;;;;5.90;5.50;;;;;;;;;;5091722;28;20306;-88
2020/12/28 14:26:19;;;;;;;6.43;6.03;;;;;;;;;;5094822;28;20187;-88
2020/12/28 14:28:50;;;;;;;6.67;6.17;;;;;;;;;;5097162;28;20640;-88
2020/12/28 14:31:21;;;;;;;6.23;5.83;;;;;;;;;;5097303;28;20192;-88
2020/12/28 14:33:51;;;;;;;6.37;5.90;;;;;;;;;;5096208;28;20180;-89
2020/12/28 14:36:23;;;;;;;7.20;6.50;;;;;;;;;;5095885;28;20262;-88
2020/12/28 14:39:00;;;;;;;7.03;6.53;;;;;;;;;;5095861;28;20185;-88
2020/12/28 14:41:29;;;;;;;7.17;6.57;;;;;;;;;;5095761;28;20195;-88
2020/12/28 14:44:01;;;;;;;6.87;6.10;;;;;;;;;;5095617;28;20203;-88
2020/12/28 14:46:33;;;;;;;6.90;6.30;;;;;;;;;;5095590;28;20202;-88
2020/12/28 14:49:05;;;;;;;7.10;6.60;;;;;;;;;;5097143;28;20165;-88
2020/12/28 14:51:31;;;;;;;7.53;6.90;;;;;;;;;;5095388;28;20249;-87
2020/12/28 14:54:01;;;;;;;7.20;6.60;;;;;;;;;;5095341;28;20636;-87
2020/12/28 14:56:31;;;;;;;7.57;6.97;;;;;;;;;;5095391;28;20185;-88
2020/12/28 14:59:01;;;;;;;6.67;6.07;;;;;;;;;;5095454;28;20545;-87
2020/12/28 15:01:29;;;;;;;7.07;6.57;;;;;;;;;;5096598;28;20199;-87
2020/12/28 15:03:55;;;;;;;6.90;6.40;;;;;;;;;;5095242;28;20210;-88
2020/12/28 15:06:23;;;;;;;6.90;6.37;;;;;;;;;;5095265;28;20259;-88